WetterOnline ( https://www.wetteronline.de )

Wetter aktuell Hohenkirchen

Aktuelles Wetter: Boltenhagen (17m)

6-stündlich | Neueste Meldungen
Ortszeit Temperatur Wetter
Do, 29.10. 7:00 8.5° C wolkig
Do, 29.10. 1:00 8.9° C bewölkt
Mi, 28.10. 19:00 10.0° C bedeckt
Mi, 28.10. 13:00 13.4° C wolkig
Mi, 28.10. 7:00 9.2° C bewölkt
Mi, 28.10. 1:00 9.4° C bewölkt
Di, 27.10. 19:00 9.5° C wolkig
Di, 27.10. 13:00 12.1° C wolkig
Ortszeit Temperatur Wetter
Do, 29.10. 9:30 9.4° C wolkig
Do, 29.10. 9:20 9.4° C wolkig
Do, 29.10. 9:10 9.0° C leicht bewölkt
Do, 29.10. 9:00 8.1° C wolkenlos
Do, 29.10. 8:50 8.1° C wolkenlos
Do, 29.10. 8:40 8.1° C leicht bewölkt
Do, 29.10. 8:30 8.4° C bewölkt
Do, 29.10. 8:00 8.2° C bewölkt
Do, 29.10. 7:30 8.3° C leicht bewölkt
Do, 29.10. 7:00 8.5° C wolkig
Do, 29.10. 6:30 8.7° C wolkig
Ortszeit Relative Feuchte Sichtweite
Do, 29.10. 7:00 94% 30 km
Do, 29.10. 1:00 83% 40 km
Mi, 28.10. 19:00 82% 35 km
Mi, 28.10. 13:00 71% 27 km
Mi, 28.10. 7:00 96% 28 km
Mi, 28.10. 1:00 79% 45 km
Di, 27.10. 19:00 81% 40 km
Di, 27.10. 13:00 70% 40 km
Ortszeit Relative Feuchte Sichtweite
Do, 29.10. 9:30 83% 35 km
Do, 29.10. 9:20 83% -
Do, 29.10. 9:10 82% -
Do, 29.10. 9:00 85% 35 km
Do, 29.10. 8:50 85% -
Do, 29.10. 8:40 87% -
Do, 29.10. 8:30 85% 40 km
Do, 29.10. 8:00 88% 35 km
Do, 29.10. 7:30 91% 29 km
Do, 29.10. 7:00 94% 30 km
Do, 29.10. 6:30 95% 17 km
Ortszeit Niederschlagsmenge Niederschlagsart
Do, 29.10. 7:00 4 l/m2 in 12 Std. Regen
Do, 29.10. 1:00 0.0 l/m2 in 6 Std. -
Mi, 28.10. 19:00 0.0 l/m2 in 12 Std. -
Mi, 28.10. 13:00 0.0 l/m2 in 6 Std. -
Mi, 28.10. 7:00 0.8 l/m2 in 12 Std. Regen
Mi, 28.10. 1:00 0.0 l/m2 in 6 Std. -
Di, 27.10. 19:00 0.0 l/m2 in 12 Std. -
Di, 27.10. 13:00 0.0 l/m2 in 6 Std. -
Ortszeit Niederschlagsmenge Niederschlagsart
Do, 29.10. 9:30 0.0 l/m2 in 1 Std. -
Do, 29.10. 9:20 keine Meldung -
Do, 29.10. 9:10 keine Meldung -
Do, 29.10. 9:00 0.0 l/m2 in 1 Std. -
Do, 29.10. 8:50 keine Meldung -
Do, 29.10. 8:40 keine Meldung -
Do, 29.10. 8:30 0.0 l/m2 in 1 Std. -
Do, 29.10. 8:00 0.0 l/m2 in 1 Std. -
Do, 29.10. 7:30 0.0 l/m2 in 1 Std. -
Do, 29.10. 7:00 0.0 l/m2 in 1 Std. Regen
Do, 29.10. 6:30 0.0 l/m2 in 1 Std. -
Ortszeit Stärke Spitze Richtung
km/h Bft. km/h Grad Sektor
Do, 29.10. 7:00 20 4 31 230° SW
Do, 29.10. 1:00 13 3 30 180° S
Mi, 28.10. 19:00 18 3 43 200° S
Mi, 28.10. 13:00 20 4 39 210° SW
Mi, 28.10. 7:00 24 4 44 210° SW
Mi, 28.10. 1:00 25 4 43 180° S
Di, 27.10. 19:00 22 4 44 190° S
Di, 27.10. 13:00 22 4 47 220° SW
Ortszeit Stärke Spitze Richtung
km/h Bft. km/h Grad Sektor
Do, 29.10. 9:30 25 4 43 240° SW
Do, 29.10. 9:20 25 4 - 240° SW
Do, 29.10. 9:10 29 5 - 240° SW
Do, 29.10. 9:00 25 4 43 230° SW
Do, 29.10. 8:50 25 4 - 230° SW
Do, 29.10. 8:40 24 4 - 230° SW
Do, 29.10. 8:30 26 4 43 240° SW
Do, 29.10. 8:00 25 4 43 240° SW
Do, 29.10. 7:30 22 4 37 230° SW
Do, 29.10. 7:00 20 4 31 230° SW
Do, 29.10. 6:30 17 3 26 210° SW
Ortszeit Untergrenze Bedeckung Gattung
total tief tief mittel hoch
Do, 29.10. 7:00 720 m 7/8 2/8 - - -
Do, 29.10. 1:00 1500 m 8/8 7/8 - - -
Mi, 28.10. 19:00 4800 m 8/8 8/8 - - -
Mi, 28.10. 13:00 1050 m 7/8 3/8 - - -
Mi, 28.10. 7:00 240 m 7/8 7/8 - - -
Mi, 28.10. 1:00 1500 m 8/8 7/8 - - -
Di, 27.10. 19:00 1140 m 6/8 5/8 - - -
Di, 27.10. 13:00 870 m 5/8 5/8 - - -
Ortszeit Bedeckungsgrad in Achtel und Wolkenuntergrenze
Do, 29.10. 9:30 6(1470m)
Do, 29.10. 9:20 6(1470m)
Do, 29.10. 9:10 3(1410m)
Do, 29.10. 9:00 keine Wolken
Do, 29.10. 8:50 keine Wolken
Do, 29.10. 8:40 2(1410m) 2(4200m)
Do, 29.10. 8:30 5(1170m) 7(1440m) 7(4200m)
Do, 29.10. 8:00 3(6000m) 7(6600m)
Do, 29.10. 7:30 1(5700m) 4(6600m)
Do, 29.10. 7:00 2(720m) 6(4500m) 7(5400m)
Do, 29.10. 6:30 3(660m) 7(3000m) 7(4200m)
Ortszeit Luftdruck NN (hPa) Tendenz (hPa in 3 Std.)
Do, 29.10. 7:00 1005 + 0,7
Do, 29.10. 1:00 1005 - 1,4
Mi, 28.10. 19:00 1007 + 0,7
Mi, 28.10. 13:00 1006 + 0,1
Mi, 28.10. 7:00 1003 + 1,3
Mi, 28.10. 1:00 1003 - 1,3
Di, 27.10. 19:00 1005 + 0,2
Di, 27.10. 13:00 1005 + 0,4
Ortszeit Luftdruck NN (hPa) Tendenz (hPa in 3 Std.)
Do, 29.10. 9:30 1007 + 2,4
Do, 29.10. 9:20 1007 keine Meldung
Do, 29.10. 9:10 1007 keine Meldung
Do, 29.10. 9:00 1006 + 2,1
Do, 29.10. 8:50 1006 keine Meldung
Do, 29.10. 8:40 1006 keine Meldung
Do, 29.10. 8:30 1006 + 1,8
Do, 29.10. 8:00 1006 + 1,5
Do, 29.10. 7:30 1005 + 1,0
Do, 29.10. 7:00 1005 + 0,7
Do, 29.10. 6:30 1004 + 0,4
Ortszeit Schneehöhe (cm)
Do, 29.10. 7:00 0
Do, 29.10. 1:00 0
Mi, 28.10. 19:00 0
Mi, 28.10. 13:00 0
Mi, 28.10. 7:00 0
Mi, 28.10. 1:00 0
Di, 27.10. 19:00 0
Di, 27.10. 13:00 0
Ortszeit Schneehöhe (cm)
Do, 29.10. 9:30 0
Do, 29.10. 9:20 0
Do, 29.10. 9:10 0
Do, 29.10. 9:00 0
Do, 29.10. 8:50 0
Do, 29.10. 8:40 0
Do, 29.10. 8:30 0
Do, 29.10. 8:00 0
Do, 29.10. 7:30 0
Do, 29.10. 7:00 0
Do, 29.10. 6:30 0
Link zu dieser Seite / Seite empfehlen

Das Wetter in ...